LETO/TOJ METAR and TAF weather

Enter ICAO airport designator
Station Type Date Time Source
LETO METAR 2019/10/18 10:00 UTC NOAA

LETO 181000Z 21012KT 170V230 9999 FEW015 SCT020 18/17 Q1018 NOSIG


Station Type Date Time Source
LETO Decoded METAR 2019/10/18 10:00 UTC NOAA

Madrid / Torrejon, Spain (LETO) 40-29N 003-27W 611M
Oct 18, 2019 - 06:00 AM EDT / 2019.10.18 1000 UTC
Wind: from the SSW (210 degrees) at 14 MPH (12 KT) (direction variable):0
Visibility: greater than 7 mile(s):0
Sky conditions: partly cloudy
Temperature: 64 F (18 C)
Dew Point: 62 F (17 C)
Relative Humidity: 93%
Pressure (altimeter): 30.06 in. Hg (1018 hPa)
ob: LETO 181000Z 21012KT 170V230 9999 FEW015 SCT020 18/17 Q1018 NOSIG
cycle: 10

Station Type Date Time Source
LETO TAF 2019/10/18 06:27 UTC NOAA

TAF LETO 180500Z 1806/1906 22008KT 9999 BKN012 BKN020 TX18/1815Z TN10/1906Z
TEMPO 1806/1809 3000 DZ BR BKN006 PROB30
TEMPO 1812/1818 24015G25KT

Example: see airport list